Time;durP1;ratioP1;P1;durP2;ratioP2;P2;SDS_P1;SDS_P2;PMS_P1;PMS_P2;Temp;Humidity;BMP_temperature;BMP_pressure;BME280_temperature;BME280_humidity;BME280_pressure;Samples;Min_cycle;Max_cycle;Signal;HPM_P1;HPM_P2
2022/07/29 00:08:08;;;;;;;5.83;3.80;;;27.10;40.10;;;;;;4868679;29;20470;-80
2022/07/29 00:17:12;;;;;;;5.33;3.90;;;27.00;40.00;;;;;;4929387;29;20387;-79
2022/07/29 00:35:54;;;;;;;4.40;3.40;;;27.10;39.80;;;;;;4928958;29;20623;-79
2022/07/29 00:39:27;;;;;;;3.60;3.27;;;27.00;39.80;;;;;;4920339;29;20413;-79
2022/07/29 00:42:35;;;;;;;3.60;2.93;;;27.00;39.60;;;;;;4947525;29;20419;-78
2022/07/29 00:48:44;;;;;;;2.83;2.53;;;27.00;39.70;;;;;;4964979;29;20487;-79
2022/07/29 00:51:14;;;;;;;3.40;3.10;;;27.00;39.70;;;;;;4962141;29;20422;-79
2022/07/29 00:54:23;;;;;;;4.07;3.10;;;27.00;39.70;;;;;;4964746;29;20433;-79
2022/07/29 01:00:34;;;;;;;7.30;3.40;;;27.00;39.60;;;;;;5042888;28;20434;-79
2022/07/29 01:03:02;;;;;;;6.07;3.37;;;27.00;39.70;;;;;;5026799;28;20411;-79
2022/07/29 01:06:05;;;;;;;4.30;3.90;;;27.00;39.70;;;;;;5029944;28;20433;-79
2022/07/29 01:12:05;;;;;;;3.30;2.90;;;27.00;39.80;;;;;;5043290;28;20375;-79
2022/07/29 01:18:25;;;;;;;3.57;2.93;;;27.00;39.70;;;;;;4985052;28;20470;-79
2022/07/29 01:24:51;;;;;;;5.43;2.77;;;27.00;39.80;;;;;;4984377;28;20397;-79
2022/07/29 01:27:47;;;;;;;3.80;2.70;;;27.00;39.80;;;;;;4984201;29;20405;-79
2022/07/29 01:30:37;;;;;;;3.20;2.90;;;27.00;39.80;;;;;;4967730;29;20478;-79
2022/07/29 01:36:35;;;;;;;4.97;2.60;;;27.00;39.90;;;;;;5018764;28;20442;-79
2022/07/29 01:43:23;;;;;;;3.73;2.50;;;27.00;40.00;;;;;;5023447;28;20407;-79
2022/07/29 01:52:55;;;;;;;3.93;3.10;;;27.00;40.00;;;;;;4936827;29;20442;-79
2022/07/29 01:56:21;;;;;;;4.50;3.17;;;26.90;39.90;;;;;;4945437;29;20400;-79
2022/07/29 02:12:12;;;;;;;5.70;3.20;;;26.90;39.80;;;;;;4941588;29;20431;-78
2022/07/29 02:15:19;;;;;;;3.90;3.20;;;26.90;39.90;;;;;;4928297;29;20463;-78
2022/07/29 02:18:22;;;;;;;4.07;2.77;;;26.90;40.00;;;;;;4971587;28;20409;-79
2022/07/29 02:21:02;;;;;;;3.60;2.90;;;26.90;39.90;;;;;;4995674;28;20428;-78
2022/07/29 02:24:39;;;;;;;3.63;3.07;;;26.90;39.70;;;;;;4999514;28;20413;-79
2022/07/29 02:27:53;;;;;;;3.70;2.80;;;26.90;39.60;;;;;;4998632;28;20479;-78
2022/07/29 02:34:27;;;;;;;4.00;3.10;;;26.90;39.90;;;;;;4980267;29;20482;-78
2022/07/29 02:44:22;;;;;;;4.30;3.10;;;26.90;39.90;;;;;;4979730;28;20397;-78
2022/07/29 02:50:49;;;;;;;3.63;2.53;;;26.90;40.00;;;;;;4922003;29;20549;-79
2022/07/29 02:57:22;;;;;;;4.80;2.67;;;26.90;39.80;;;;;;4960023;29;20450;-78
2022/07/29 02:59:54;;;;;;;4.07;2.93;;;26.90;39.80;;;;;;4943254;29;20491;-78
2022/07/29 03:03:09;;;;;;;3.07;2.77;;;26.90;39.90;;;;;;4931650;29;20414;-77
2022/07/29 03:05:42;;;;;;;6.53;3.50;;;26.90;39.80;;;;;;4969557;29;20454;-79
2022/07/29 03:08:36;;;;;;;4.10;3.27;;;26.90;39.80;;;;;;4997906;28;20456;-80
2022/07/29 03:11:18;;;;;;;3.43;2.90;;;26.90;39.80;;;;;;5017433;28;20432;-80
2022/07/29 03:14:30;;;;;;;3.43;3.13;;;26.90;39.80;;;;;;5019460;28;20408;-80
2022/07/29 03:17:59;;;;;;;3.77;2.70;;;26.90;39.80;;;;;;5014606;28;20439;-79
2022/07/29 03:24:40;;;;;;;3.47;2.50;;;26.90;39.80;;;;;;5037932;28;20367;-79
2022/07/29 03:30:46;;;;;;;5.53;3.13;;;26.90;39.80;;;;;;5016503;28;20833;-80
2022/07/29 03:33:14;;;;;;;5.10;3.70;;;26.90;39.80;;;;;;4998375;28;20455;-80
2022/07/29 03:35:44;;;;;;;3.10;2.80;;;26.90;39.80;;;;;;5013197;28;20416;-80
2022/07/29 03:38:15;;;;;;;2.67;2.47;;;26.90;39.80;;;;;;4982515;28;20409;-80
2022/07/29 03:41:01;;;;;;;4.27;2.57;;;26.90;39.90;;;;;;4999026;28;20440;-80
2022/07/29 03:43:34;;;;;;;4.17;2.80;;;26.90;39.90;;;;;;4997812;28;20420;-80
2022/07/29 03:46:03;;;;;;;2.97;2.70;;;26.90;39.80;;;;;;5013913;28;20472;-80
2022/07/29 03:48:32;;;;;;;2.57;2.37;;;26.90;39.90;;;;;;4998272;28;20456;-79
2022/07/29 03:51:00;;;;;;;4.70;2.47;;;27.00;39.90;;;;;;5014564;28;20436;-79
2022/07/29 03:53:35;;;;;;;4.87;2.80;;;26.90;39.90;;;;;;5015373;28;20480;-80
2022/07/29 03:56:06;;;;;;;2.90;2.60;;;26.90;39.90;;;;;;4998078;28;20424;-80
2022/07/29 03:58:35;;;;;;;4.87;2.97;;;26.90;39.90;;;;;;5023478;28;20405;-79
2022/07/29 04:01:05;;;;;;;4.03;2.80;;;26.90;39.90;;;;;;5058197;28;20448;-80
2022/07/29 04:03:32;;;;;;;4.20;3.00;;;26.90;39.90;;;;;;5075683;28;20409;-80
2022/07/29 04:06:07;;;;;;;4.53;2.80;;;27.00;39.90;;;;;;5042181;28;20424;-80
2022/07/29 04:08:35;;;;;;;3.63;3.27;;;26.90;39.90;;;;;;5075605;28;20514;-80
2022/07/29 04:11:02;;;;;;;3.30;3.00;;;26.90;39.80;;;;;;5042150;28;20428;-80
2022/07/29 04:13:29;;;;;;;4.97;2.93;;;26.90;39.80;;;;;;5074932;28;20410;-80
2022/07/29 04:15:56;;;;;;;4.40;3.10;;;26.90;39.60;;;;;;5058339;28;20440;-80
2022/07/29 04:18:24;;;;;;;3.20;2.90;;;26.90;39.70;;;;;;5075021;28;20402;-80
2022/07/29 04:20:53;;;;;;;3.10;2.80;;;26.90;39.70;;;;;;5057747;28;20409;-79
2022/07/29 04:26:44;;;;;;;3.73;2.60;;;26.90;39.80;;;;;;5075969;28;20396;-80
2022/07/29 04:29:16;;;;;;;4.40;3.40;;;26.80;39.70;;;;;;5057689;28;20521;-79
2022/07/29 04:31:47;;;;;;;4.03;3.03;;;26.90;39.80;;;;;;5075097;28;20441;-79
2022/07/29 04:34:15;;;;;;;3.20;2.67;;;26.80;39.80;;;;;;5041580;28;20406;-79
2022/07/29 04:36:48;;;;;;;3.70;3.07;;;26.80;39.80;;;;;;5057723;28;20531;-80
2022/07/29 04:39:18;;;;;;;5.20;3.80;;;26.90;39.90;;;;;;5057898;28;20418;-79
2022/07/29 04:41:47;;;;;;;8.40;4.50;;;26.90;39.90;;;;;;5051378;28;20444;-81
2022/07/29 04:44:14;;;;;;;8.20;3.40;;;26.90;39.90;;;;;;5048631;28;20409;-80
2022/07/29 04:46:41;;;;;;;4.20;3.40;;;26.90;39.90;;;;;;5066084;28;20488;-81
2022/07/29 04:49:07;;;;;;;4.17;3.40;;;26.90;39.90;;;;;;5066260;28;20483;-81
2022/07/29 04:51:37;;;;;;;4.37;3.70;;;26.90;39.90;;;;;;5049174;28;20402;-81
2022/07/29 04:54:07;;;;;;;3.60;3.07;;;26.90;39.90;;;;;;5049164;28;20406;-81
2022/07/29 04:56:34;;;;;;;3.60;3.30;;;26.90;40.00;;;;;;5047790;28;20434;-81
2022/07/29 04:59:01;;;;;;;7.50;3.37;;;26.90;40.00;;;;;;5048655;28;20453;-82
2022/07/29 05:01:27;;;;;;;4.53;2.83;;;26.90;39.90;;;;;;5049457;28;20410;-81
2022/07/29 05:03:53;;;;;;;4.53;2.97;;;26.90;39.90;;;;;;5048016;28;20421;-81
2022/07/29 05:06:25;;;;;;;3.63;2.67;;;26.90;39.90;;;;;;5048345;28;20413;-81
2022/07/29 05:08:51;;;;;;;3.30;2.70;;;26.90;39.90;;;;;;5047648;28;20556;-81
2022/07/29 05:11:21;;;;;;;7.00;2.83;;;26.90;40.00;;;;;;5048610;28;20417;-81
2022/07/29 05:13:46;;;;;;;4.47;2.63;;;26.90;40.00;;;;;;5031804;28;20444;-81
2022/07/29 05:19:34;;;;;;;4.23;2.80;;;26.90;40.10;;;;;;5065875;28;20392;-81
2022/07/29 05:25:41;;;;;;;;;;;;;;;;;;;;;
2022/07/29 05:28:07;;;;;;;4.97;2.50;;;26.90;40.10;;;;;;5066075;28;20551;-81
2022/07/29 05:30:33;;;;;;;4.97;3.17;;;26.90;40.10;;;;;;5047947;28;20855;-80
2022/07/29 05:33:01;;;;;;;3.47;3.17;;;26.80;40.00;;;;;;5051016;28;20195;-80
2022/07/29 05:35:27;;;;;;;4.37;3.10;;;26.90;40.00;;;;;;5069756;28;20720;-81
2022/07/29 05:37:53;;;;;;;4.63;3.20;;;26.90;40.10;;;;;;5051435;28;20485;-81
2022/07/29 05:43:41;;;;;;;4.97;2.77;;;26.90;40.10;;;;;;5069516;28;20931;-81
2022/07/29 05:46:07;;;;;;;3.07;2.47;;;26.90;40.70;;;;;;5051423;28;20414;-81
2022/07/29 05:48:33;;;;;;;5.20;3.50;;;26.80;40.10;;;;;;5052187;28;20515;-81
2022/07/29 05:51:02;;;;;;;5.53;2.77;;;26.90;40.10;;;;;;5051521;28;20179;-81
2022/07/29 05:53:34;;;;;;;3.40;2.87;;;26.80;40.10;;;;;;5051795;28;20453;-80
2022/07/29 05:56:07;;;;;;;2.60;2.37;;;26.80;40.10;;;;;;5052176;28;20436;-79
2022/07/29 05:58:33;;;;;;;3.27;2.73;;;26.80;40.10;;;;;;5053048;28;20443;-81
2022/07/29 06:01:00;;;;;;;3.70;2.70;;;26.80;40.10;;;;;;5070211;28;20405;-82
2022/07/29 06:04:10;;;;;;;4.47;2.67;;;26.90;40.10;;;;;;5053283;28;20489;-84
2022/07/29 06:06:59;;;;;;;2.90;2.60;;;26.90;40.00;;;;;;4956148;29;20428;-85
2022/07/29 06:09:25;;;;;;;3.50;3.07;;;26.90;40.10;;;;;;4954244;29;20526;-81
2022/07/29 06:11:52;;;;;;;4.33;2.90;;;26.80;40.10;;;;;;4956156;29;20414;-81
2022/07/29 06:14:22;;;;;;;3.20;2.50;;;26.80;40.00;;;;;;4973611;29;20426;-84
2022/07/29 06:16:55;;;;;;;4.90;2.70;;;26.90;40.20;;;;;;4957506;29;20411;-83
2022/07/29 06:19:26;;;;;;;3.83;3.23;;;26.90;40.10;;;;;;4973342;29;20395;-82
2022/07/29 06:21:58;;;;;;;5.83;2.57;;;26.90;40.10;;;;;;4974315;29;20399;-82
2022/07/29 06:24:25;;;;;;;4.60;2.77;;;26.90;40.10;;;;;;4943618;29;20734;-82
2022/07/29 06:26:57;;;;;;;4.00;2.87;;;26.90;40.10;;;;;;4957347;29;20418;-82
2022/07/29 06:29:30;;;;;;;3.97;3.30;;;26.90;40.10;;;;;;4974555;28;20457;-81
2022/07/29 06:35:26;;;;;;;5.30;3.30;;;26.90;40.20;;;;;;4974518;29;20378;-82
2022/07/29 06:38:11;;;;;;;;;;;;;;;;;;;;;
2022/07/29 06:43:45;;;;;;;3.70;2.50;;;26.90;40.30;;;;;;4966037;28;20426;-81
2022/07/29 06:46:17;;;;;;;5.43;3.03;;;26.90;40.50;;;;;;4974091;29;20442;-81
2022/07/29 06:48:44;;;;;;;3.03;2.33;;;26.90;40.50;;;;;;4955848;29;20454;-80
2022/07/29 06:51:12;;;;;;;7.17;3.20;;;26.90;40.50;;;;;;4954513;29;20967;-80
2022/07/29 06:53:40;;;;;;;4.73;2.47;;;26.90;40.50;;;;;;4970618;29;20429;-80
2022/07/29 06:56:10;;;;;;;5.47;2.80;;;26.90;40.40;;;;;;4972302;29;20418;-80
2022/07/29 06:58:46;;;;;;;2.83;2.10;;;27.00;40.50;;;;;;4971526;29;20794;-82
2022/07/29 07:01:16;;;;;;;3.70;2.67;;;26.90;40.40;;;;;;4970446;29;20402;-80
2022/07/29 07:03:47;;;;;;;3.00;2.70;;;26.90;40.40;;;;;;4953584;29;20473;-81
2022/07/29 07:06:19;;;;;;;4.47;2.50;;;26.90;40.50;;;;;;4970585;29;20461;-82
2022/07/29 07:08:56;;;;;;;8.23;3.00;;;26.90;40.50;;;;;;4954090;29;20461;-81
2022/07/29 07:11:23;;;;;;;3.40;2.80;;;27.00;40.50;;;;;;4954069;29;20415;-80
2022/07/29 07:13:56;;;;;;;3.17;2.87;;;27.00;40.50;;;;;;4952996;29;20413;-80
2022/07/29 07:16:44;;;;;;;2.77;2.40;;;27.00;40.50;;;;;;4969701;29;20857;-81
2022/07/29 07:19:36;;;;;;;2.97;2.67;;;27.00;40.50;;;;;;4984984;28;20414;-88
2022/07/29 07:22:02;;;;;;;3.50;2.60;;;27.00;40.40;;;;;;5054428;28;20481;-80
2022/07/29 07:27:52;;;;;;;2.50;2.30;;;27.00;40.50;;;;;;5073380;28;20205;-82
2022/07/29 07:30:32;;;;;;;2.57;2.10;;;27.00;40.50;;;;;;5052823;28;20414;-82
2022/07/29 07:33:06;;;;;;;4.10;2.90;;;27.00;40.40;;;;;;5071266;28;20492;-84
2022/07/29 07:36:00;;;;;;;3.40;2.10;;;27.00;40.50;;;;;;5055751;28;20413;-82
2022/07/29 07:38:39;;;;;;;4.60;2.20;;;27.00;40.50;;;;;;5054245;28;20977;-82
2022/07/29 07:41:18;;;;;;;4.80;2.67;;;27.00;40.50;;;;;;5054200;28;20486;-82
2022/07/29 07:43:53;;;;;;;4.23;2.53;;;27.00;40.50;;;;;;5055861;28;20409;-82
2022/07/29 07:46:27;;;;;;;3.07;2.67;;;27.00;40.50;;;;;;5055725;28;20483;-82
2022/07/29 07:49:00;;;;;;;4.13;2.30;;;27.00;40.50;;;;;;5055101;28;20453;-83
2022/07/29 07:51:30;;;;;;;4.80;2.60;;;27.10;40.60;;;;;;5056069;28;20413;-82
2022/07/29 07:54:00;;;;;;;3.50;2.70;;;27.10;40.60;;;;;;5056044;28;20757;-82
2022/07/29 08:03:19;;;;;;;2.57;1.87;;;27.10;40.60;;;;;;4974205;28;20401;-82
2022/07/29 08:05:51;;;;;;;2.53;2.30;;;27.00;40.60;;;;;;4956826;29;20418;-83
2022/07/29 08:08:26;;;;;;;2.90;2.50;;;27.00;40.60;;;;;;4957200;29;20576;-82
2022/07/29 08:10:55;;;;;;;4.70;2.70;;;27.10;40.70;;;;;;4973156;28;20421;-82
2022/07/29 08:13:37;;;;;;;3.00;2.50;;;27.10;40.60;;;;;;4957156;29;20458;-82
2022/07/29 08:19:47;;;;;;;2.67;2.37;;;27.10;40.70;;;;;;4972516;29;20406;-83
2022/07/29 08:23:08;;;;;;;2.73;2.10;;;27.10;40.70;;;;;;4956463;29;20418;-82
2022/07/29 08:25:42;;;;;;;3.17;2.43;;;27.10;40.70;;;;;;4896209;29;20410;-82
2022/07/29 08:28:35;;;;;;;3.00;2.67;;;27.00;40.70;;;;;;4883331;29;20630;-82
2022/07/29 08:41:07;;;;;;;3.43;2.40;;;27.10;40.90;;;;;;4896799;29;20407;-83
2022/07/29 08:43:53;;;;;;;4.23;2.63;;;27.10;40.90;;;;;;4895740;29;20826;-81
2022/07/29 08:46:32;;;;;;;2.53;2.33;;;27.10;40.90;;;;;;4880268;29;20429;-82
2022/07/29 08:49:17;;;;;;;2.77;2.30;;;27.10;41.00;;;;;;4891163;29;20462;-83
2022/07/29 08:52:11;;;;;;;4.73;2.53;;;27.10;40.90;;;;;;4897503;29;20477;-84
2022/07/29 08:54:48;;;;;;;3.13;2.80;;;27.10;41.00;;;;;;4896363;29;20424;-82
2022/07/29 08:57:23;;;;;;;2.50;2.30;;;27.10;40.90;;;;;;4881619;29;20394;-81
2022/07/29 09:03:41;;;;;;;2.60;2.40;;;27.10;41.10;;;;;;4971475;28;20506;-83
2022/07/29 09:10:24;;;;;;;;;;;;;;;;;;;;;
2022/07/29 09:16:25;;;;;;;3.47;2.70;;;27.20;41.20;;;;;;4917499;29;20399;-82
2022/07/29 09:19:28;;;;;;;2.63;2.40;;;27.20;41.20;;;;;;4902063;29;20455;-82
2022/07/29 09:22:09;;;;;;;2.77;2.50;;;27.20;41.30;;;;;;4901881;29;20550;-83
2022/07/29 09:25:26;;;;;;;;;;;;;;;;;;;;;
2022/07/29 09:28:10;;;;;;;5.50;2.77;;;27.20;41.30;;;;;;4917236;29;20535;-84
2022/07/29 09:31:02;;;;;;;4.53;2.70;;;27.20;41.30;;;;;;4916315;29;20440;-81
2022/07/29 09:34:04;;;;;;;3.40;2.50;;;27.20;41.30;;;;;;4901771;29;20504;-85
2022/07/29 09:36:30;;;;;;;3.87;2.57;;;27.20;41.30;;;;;;4900394;29;20444;-79
2022/07/29 09:39:02;;;;;;;5.23;2.57;;;27.30;41.40;;;;;;4900876;29;20401;-80
2022/07/29 09:41:59;;;;;;;3.63;2.80;;;27.30;41.50;;;;;;4902957;29;20421;-82
2022/07/29 09:44:46;;;;;;;3.00;2.80;;;27.30;41.60;;;;;;4903389;29;20415;-82
2022/07/29 09:47:21;;;;;;;2.93;2.63;;;27.20;41.60;;;;;;4955565;29;20429;-81
2022/07/29 09:50:36;;;;;;;3.90;2.93;;;27.30;41.70;;;;;;5000796;28;20399;-81
2022/07/29 09:53:32;;;;;;;4.47;3.50;;;27.30;41.70;;;;;;4978981;28;20397;-81
2022/07/29 09:56:15;;;;;;;4.10;2.73;;;27.30;41.80;;;;;;4979606;28;20409;-82
2022/07/29 09:59:10;;;;;;;4.00;3.13;;;27.30;41.90;;;;;;4995017;28;20441;-81
2022/07/29 10:01:40;;;;;;;3.80;3.30;;;27.30;42.00;;;;;;4994963;28;20420;-81
2022/07/29 10:04:07;;;;;;;6.43;3.87;;;27.30;42.10;;;;;;4995830;28;20413;-82
2022/07/29 10:09:59;;;;;;;4.43;3.07;;;27.30;42.00;;;;;;4956786;29;20460;-82
2022/07/29 10:12:29;;;;;;;4.63;3.40;;;27.30;42.20;;;;;;4994651;28;20421;-81
2022/07/29 10:14:57;;;;;;;5.17;3.50;;;27.30;42.10;;;;;;4995043;28;20455;-82
2022/07/29 10:17:27;;;;;;;3.70;3.40;;;27.30;42.20;;;;;;4995282;28;20410;-82
2022/07/29 10:19:53;;;;;;;5.07;3.47;;;27.40;42.40;;;;;;4978122;28;20425;-82
2022/07/29 10:22:46;;;;;;;3.50;3.20;;;27.40;42.50;;;;;;4995268;28;20423;-82
2022/07/29 10:25:14;;;;;;;5.57;3.23;;;27.40;42.70;;;;;;4994005;28;20791;-82
2022/07/29 10:27:46;;;;;;;3.70;3.40;;;27.40;42.50;;;;;;4976965;28;20465;-82
2022/07/29 10:30:23;;;;;;;4.17;3.43;;;27.40;42.60;;;;;;5044006;28;20421;-82
2022/07/29 10:33:09;;;;;;;6.50;3.40;;;27.40;42.50;;;;;;5075373;28;20412;-81
2022/07/29 10:36:12;;;;;;;4.00;3.00;;;27.40;42.40;;;;;;5075439;28;20426;-82
2022/07/29 10:45:33;;;;;;;3.40;2.87;;;27.40;42.50;;;;;;5075948;28;20450;-82
2022/07/29 10:48:06;;;;;;;4.23;3.13;;;27.40;42.60;;;;;;5070583;28;20483;-82
2022/07/29 10:51:02;;;;;;;3.80;3.50;;;27.40;42.50;;;;;;5058981;28;20417;-82
2022/07/29 10:53:54;;;;;;;4.10;3.63;;;27.40;42.60;;;;;;5057306;28;20434;-81
2022/07/29 10:56:40;;;;;;;3.77;3.37;;;27.40;42.50;;;;;;5058197;28;20467;-81
2022/07/29 10:59:38;;;;;;;5.53;2.80;;;27.40;42.60;;;;;;5058103;28;20402;-81
2022/07/29 11:02:59;;;;;;;5.23;3.63;;;27.40;42.60;;;;;;4959181;29;20441;-81
2022/07/29 11:09:25;;;;;;;3.33;3.03;;;27.40;42.60;;;;;;4881914;29;20452;-81
2022/07/29 11:11:56;;;;;;;3.13;2.83;;;27.40;42.70;;;;;;4886676;29;20435;-80
2022/07/29 11:15:09;;;;;;;3.10;2.80;;;27.40;42.70;;;;;;4887631;29;20523;-81
2022/07/29 11:18:25;;;;;;;3.77;3.07;;;27.40;42.80;;;;;;4902021;29;20417;-81
2022/07/29 11:20:56;;;;;;;5.80;5.20;;;27.40;42.90;;;;;;4883583;29;20425;-81
2022/07/29 11:23:43;;;;;;;5.40;3.73;;;27.40;43.00;;;;;;4869373;29;20434;-82
2022/07/29 11:26:33;;;;;;;5.47;3.70;;;27.40;43.20;;;;;;4885843;29;20410;-82
2022/07/29 11:29:40;;;;;;;4.30;3.60;;;27.50;43.30;;;;;;4884073;29;20465;-82
2022/07/29 11:32:14;;;;;;;4.13;3.70;;;27.50;43.40;;;;;;4880984;29;20411;-81
2022/07/29 11:34:42;;;;;;;3.93;3.53;;;27.50;43.40;;;;;;4850058;29;20434;-81
2022/07/29 11:37:29;;;;;;;4.17;3.33;;;27.50;43.40;;;;;;4863462;29;20460;-82
2022/07/29 11:43:57;;;;;;;4.13;3.70;;;27.50;43.50;;;;;;4898795;29;20389;-81
2022/07/29 11:46:50;;;;;;;3.40;3.10;;;27.50;43.60;;;;;;4883663;29;20430;-81
2022/07/29 11:49:36;;;;;;;4.73;3.13;;;27.50;43.60;;;;;;4897292;29;20570;-81
2022/07/29 11:52:08;;;;;;;4.10;3.80;;;27.50;43.70;;;;;;4882621;29;20418;-81
2022/07/29 11:54:53;;;;;;;4.10;3.70;;;27.50;43.70;;;;;;4898721;29;20429;-81
2022/07/29 11:57:26;;;;;;;3.93;3.50;;;27.50;43.80;;;;;;4910383;29;20417;-82
2022/07/29 11:59:58;;;;;;;3.50;3.20;;;27.50;44.60;;;;;;4958910;29;20474;-82
2022/07/29 12:05:46;;;;;;;3.33;3.03;;;27.60;44.00;;;;;;4977587;28;20416;-82
2022/07/29 12:08:38;;;;;;;3.30;3.00;;;27.50;43.80;;;;;;4978409;28;20465;-82
2022/07/29 12:14:35;;;;;;;4.47;3.60;;;27.60;43.80;;;;;;4994441;28;20384;-82
2022/07/29 12:17:24;;;;;;;4.33;3.63;;;27.50;43.90;;;;;;5002824;28;20426;-82
2022/07/29 12:19:54;;;;;;;5.00;3.10;;;27.50;43.90;;;;;;5070081;28;20448;-81
2022/07/29 12:22:40;;;;;;;3.77;3.47;;;27.50;43.80;;;;;;5075078;28;20804;-82
2022/07/29 12:25:14;;;;;;;3.63;3.33;;;27.60;43.90;;;;;;5058339;28;20413;-82
2022/07/29 12:28:24;;;;;;;3.87;3.57;;;27.60;43.90;;;;;;5057766;28;20516;-81
2022/07/29 12:30:58;;;;;;;3.73;3.43;;;27.60;43.80;;;;;;5059801;28;20408;-81
2022/07/29 12:33:29;;;;;;;3.57;3.27;;;27.60;43.90;;;;;;5039419;28;20409;-81
2022/07/29 12:36:27;;;;;;;4.00;3.53;;;27.60;43.90;;;;;;5074783;28;20477;-81
2022/07/29 12:42:18;;;;;;;3.70;3.40;;;27.60;43.80;;;;;;5074542;28;20373;-81
2022/07/29 12:44:54;;;;;;;3.60;3.30;;;27.60;44.50;;;;;;5041272;28;20429;-81
2022/07/29 12:47:25;;;;;;;3.80;3.50;;;27.60;44.00;;;;;;5056603;28;20429;-81
2022/07/29 12:50:17;;;;;;;4.60;4.10;;;27.60;44.00;;;;;;5072409;28;20424;-81
2022/07/29 12:52:45;;;;;;;3.83;3.43;;;27.60;43.90;;;;;;5056938;28;20441;-81
2022/07/29 12:55:14;;;;;;;3.70;3.40;;;27.60;43.90;;;;;;5057630;28;20481;-81
2022/07/29 12:57:53;;;;;;;5.73;4.03;;;27.60;43.90;;;;;;5074522;28;20510;-80
2022/07/29 13:00:34;;;;;;;4.27;3.80;;;27.60;44.00;;;;;;5040931;28;20526;-80
2022/07/29 13:03:04;;;;;;;4.07;3.63;;;27.60;44.00;;;;;;5057246;28;20426;-81
2022/07/29 13:05:46;;;;;;;3.63;3.33;;;27.60;44.00;;;;;;5074643;28;20401;-81
2022/07/29 13:08:28;;;;;;;3.67;3.37;;;27.60;44.10;;;;;;5040603;28;20468;-81
2022/07/29 13:11:02;;;;;;;5.10;3.73;;;27.60;44.00;;;;;;5051560;28;20421;-81
2022/07/29 13:13:55;;;;;;;4.00;3.67;;;27.60;44.10;;;;;;5057327;28;20410;-81
2022/07/29 13:20:27;;;;;;;4.33;4.03;;;27.60;44.10;;;;;;5074816;28;20413;-81
2022/07/29 13:26:42;;;;;;;5.50;3.70;;;27.60;44.20;;;;;;4975336;29;20459;-81
2022/07/29 13:29:15;;;;;;;4.43;4.03;;;27.60;44.30;;;;;;4975275;28;20561;-81
2022/07/29 13:32:48;;;;;;;;;;;;;;;;;;;;;
2022/07/29 13:42:52;;;;;;;5.00;4.60;;;27.70;44.40;;;;;;4880464;29;20442;-82
2022/07/29 13:45:27;;;;;;;3.93;3.60;;;27.60;44.30;;;;;;4876664;29;20439;-82
2022/07/29 13:48:03;;;;;;;6.93;4.10;;;27.60;44.30;;;;;;4866248;29;20529;-82
2022/07/29 13:50:33;;;;;;;3.63;3.33;;;27.60;44.40;;;;;;4864862;29;20442;-81
2022/07/29 13:53:06;;;;;;;4.23;3.83;;;27.60;44.30;;;;;;4866483;29;20463;-82
2022/07/29 13:55:37;;;;;;;4.30;3.90;;;27.70;44.30;;;;;;4884183;29;20442;-82
2022/07/29 14:02:30;;;;;;;4.03;3.73;;;27.70;44.60;;;;;;4940736;29;20371;-82
2022/07/29 14:08:04;;;;;;;4.13;3.80;;;27.70;44.60;;;;;;4939991;29;20462;-82
2022/07/29 14:10:38;;;;;;;3.70;3.40;;;27.60;44.50;;;;;;4909007;29;20545;-82
2022/07/29 14:13:05;;;;;;;3.80;3.50;;;27.70;44.50;;;;;;5017390;28;20406;-82
2022/07/29 14:15:45;;;;;;;4.00;3.50;;;27.70;44.60;;;;;;5060323;28;20473;-82
2022/07/29 14:21:53;;;;;;;5.00;4.60;;;27.70;44.60;;;;;;5078399;28;20361;-82
2022/07/29 14:24:53;;;;;;;4.27;3.80;;;27.70;44.70;;;;;;5063571;28;20421;-82
2022/07/29 14:28:02;;;;;;;4.13;3.73;;;27.70;44.70;;;;;;5063884;28;20413;-82
2022/07/29 14:30:35;;;;;;;4.60;4.00;;;27.70;44.90;;;;;;5014559;28;20410;-81
2022/07/29 14:33:06;;;;;;;4.43;3.60;;;27.70;44.80;;;;;;5034911;28;20413;-82
2022/07/29 14:35:37;;;;;;;4.13;3.83;;;27.70;44.90;;;;;;5076680;28;20414;-82
2022/07/29 14:38:26;;;;;;;4.17;3.77;;;27.70;44.90;;;;;;5070161;28;20464;-83
2022/07/29 14:41:14;;;;;;;4.53;4.10;;;27.80;45.00;;;;;;5076905;28;20417;-83
2022/07/29 14:44:00;;;;;;;4.30;3.90;;;27.70;45.40;;;;;;5064385;28;20420;-83
2022/07/29 14:59:35;;;;;;;8.43;3.80;;;27.70;45.10;;;;;;4918622;29;20420;-82
2022/07/29 15:02:20;;;;;;;6.00;4.70;;;27.70;45.20;;;;;;4908471;29;20436;-81
2022/07/29 15:04:52;;;;;;;4.40;4.00;;;27.70;45.30;;;;;;4918599;29;20409;-81
2022/07/29 15:07:20;;;;;;;4.37;4.07;;;27.70;45.20;;;;;;4889224;29;20401;-81
2022/07/29 15:10:06;;;;;;;4.10;3.80;;;27.80;45.10;;;;;;4904130;29;20453;-81
2022/07/29 15:12:35;;;;;;;4.30;3.90;;;27.80;45.20;;;;;;4905531;29;20417;-82
2022/07/29 15:15:02;;;;;;;4.70;3.67;;;27.80;45.30;;;;;;4960919;29;20437;-82
2022/07/29 15:17:32;;;;;;;4.40;3.43;;;27.80;45.20;;;;;;4960727;29;20521;-80
2022/07/29 15:20:13;;;;;;;4.63;4.23;;;27.80;45.40;;;;;;4975797;28;20461;-81
2022/07/29 15:29:20;;;;;;;3.50;3.20;;;27.80;45.90;;;;;;4976063;29;20464;-82
2022/07/29 15:31:53;;;;;;;3.63;3.10;;;27.80;46.20;;;;;;4993917;28;20467;-82
2022/07/29 15:34:20;;;;;;;2.70;2.50;;;27.80;46.10;;;;;;5057897;28;20414;-82
2022/07/29 15:36:57;;;;;;;3.40;2.80;;;27.80;46.10;;;;;;5042057;28;20426;-82
2022/07/29 15:39:29;;;;;;;3.23;2.70;;;27.80;45.80;;;;;;5042629;28;20406;-82
2022/07/29 15:42:07;;;;;;;3.33;3.03;;;27.80;45.70;;;;;;5075853;28;20393;-82
2022/07/29 15:44:37;;;;;;;3.10;2.47;;;27.80;45.80;;;;;;5058044;28;20436;-82
2022/07/29 15:47:10;;;;;;;3.57;3.27;;;27.70;45.80;;;;;;5058398;28;20410;-82
2022/07/29 15:49:42;;;;;;;3.33;3.03;;;27.80;45.90;;;;;;5041967;28;20472;-82
2022/07/29 15:52:21;;;;;;;5.37;3.47;;;27.70;45.90;;;;;;5057694;28;20425;-82
2022/07/29 15:54:51;;;;;;;3.47;3.17;;;27.80;45.90;;;;;;5029228;28;20424;-82
2022/07/29 15:57:19;;;;;;;3.40;2.60;;;27.70;45.90;;;;;;5054133;28;20446;-82
2022/07/29 16:00:17;;;;;;;3.37;3.07;;;27.70;45.90;;;;;;5074120;28;20451;-82
2022/07/29 16:03:25;;;;;;;5.60;3.37;;;27.70;46.10;;;;;;5073735;28;20432;-82
2022/07/29 16:06:31;;;;;;;3.37;3.07;;;27.70;46.30;;;;;;5042203;28;20489;-82
2022/07/29 16:09:21;;;;;;;3.67;3.00;;;27.70;46.40;;;;;;5074845;28;20446;-82
2022/07/29 16:12:05;;;;;;;3.50;3.20;;;27.70;46.80;;;;;;5074769;28;20410;-82
2022/07/29 16:18:36;;;;;;;3.70;3.33;;;27.70;47.40;;;;;;5012987;28;20415;-82
2022/07/29 16:21:05;;;;;;;3.23;2.93;;;27.70;46.90;;;;;;4981064;28;20420;-82
2022/07/29 16:27:34;;;;;;;3.30;3.00;;;27.60;46.90;;;;;;5013564;28;20447;-81
2022/07/29 16:30:26;;;;;;;;;;;;;;;;;;;;;
2022/07/29 16:36:26;;;;;;;3.70;3.20;;;27.70;46.70;;;;;;4994310;28;20455;-82
2022/07/29 16:39:09;;;;;;;3.90;3.60;;;27.60;46.70;;;;;;4978113;28;20432;-81
2022/07/29 16:42:06;;;;;;;3.57;3.27;;;27.70;47.40;;;;;;4934173;29;20412;-82
2022/07/29 16:44:36;;;;;;;4.27;3.20;;;27.70;47.40;;;;;;4920087;29;20412;-82
2022/07/29 16:47:15;;;;;;;4.10;3.30;;;27.70;47.40;;;;;;4945947;29;20415;-82
2022/07/29 16:49:48;;;;;;;4.40;3.33;;;27.70;46.80;;;;;;4936387;29;20546;-82
2022/07/29 16:52:25;;;;;;;6.00;3.43;;;27.70;47.00;;;;;;4955572;29;20415;-82
2022/07/29 16:55:00;;;;;;;3.13;2.83;;;27.70;48.00;;;;;;4955506;29;20423;-82
2022/07/29 16:57:34;;;;;;;3.33;2.77;;;27.70;48.00;;;;;;4954869;29;20411;-83
2022/07/29 17:00:06;;;;;;;3.83;3.50;;;27.70;48.30;;;;;;4955429;29;20526;-83
2022/07/29 17:09:52;;;;;;;3.73;3.10;;;27.60;49.10;;;;;;4936508;29;20478;-83
2022/07/29 17:12:45;;;;;;;;;;;;;;;;;;;;;
2022/07/29 17:15:24;;;;;;;3.50;3.20;;;27.60;48.00;;;;;;4950834;29;20426;-82
2022/07/29 17:17:57;;;;;;;4.20;3.60;;;27.60;48.10;;;;;;4955568;29;20414;-84
2022/07/29 17:20:55;;;;;;;6.67;3.53;;;27.60;48.00;;;;;;4952836;29;20434;-83
2022/07/29 17:26:38;;;;;;;3.50;3.20;;;27.60;48.20;;;;;;4935477;29;20468;-83
2022/07/29 17:29:14;;;;;;;4.43;3.70;;;27.60;48.20;;;;;;4938803;29;20483;-83
2022/07/29 17:32:08;;;;;;;3.77;3.40;;;27.60;48.30;;;;;;4939916;29;20420;-83
2022/07/29 17:34:46;;;;;;;2.80;2.57;;;27.60;48.20;;;;;;4940152;29;20427;-83
2022/07/29 17:37:28;;;;;;;4.10;3.50;;;27.60;48.50;;;;;;4939572;29;20534;-83
2022/07/29 17:40:00;;;;;;;4.03;3.50;;;27.60;48.90;;;;;;4938220;29;20414;-83
2022/07/29 17:42:43;;;;;;;5.03;3.00;;;27.60;48.50;;;;;;4907256;29;20428;-83
2022/07/29 17:45:16;;;;;;;3.77;3.13;;;27.60;48.20;;;;;;4937261;29;20418;-83
2022/07/29 17:48:16;;;;;;;3.60;3.00;;;27.60;48.70;;;;;;4939658;29;20418;-83
2022/07/29 17:51:02;;;;;;;3.53;3.23;;;27.60;48.20;;;;;;4939310;29;20408;-83
2022/07/29 17:54:14;;;;;;;4.23;3.20;;;27.60;47.70;;;;;;4924634;29;20746;-83
2022/07/29 17:57:11;;;;;;;6.63;3.20;;;27.60;47.70;;;;;;4923524;29;20435;-83
2022/07/29 18:03:00;;;;;;;3.40;3.10;;;27.60;47.50;;;;;;4939499;29;20567;-83
2022/07/29 18:05:41;;;;;;;4.23;3.40;;;27.50;47.40;;;;;;4939220;29;20435;-83
2022/07/29 18:08:34;;;;;;;3.27;3.00;;;27.60;48.00;;;;;;4936632;29;20459;-83
2022/07/29 18:11:13;;;;;;;2.97;2.70;;;27.60;47.60;;;;;;4939626;29;20408;-83
2022/07/29 18:13:53;;;;;;;3.90;3.60;;;27.60;47.40;;;;;;4923643;29;20408;-83